createdAt,value
2023-07-26T00:03:01.832Z,989.60
2023-07-26T00:08:01.673Z,989.71
2023-07-26T00:13:01.619Z,989.69
2023-07-26T00:18:01.553Z,989.74
2023-07-26T00:23:01.521Z,989.71
2023-07-26T00:28:01.391Z,989.71
2023-07-26T00:33:01.380Z,989.72
2023-07-26T00:38:01.309Z,989.74
2023-07-26T00:43:04.218Z,989.80
2023-07-26T00:48:01.226Z,989.86
2023-07-26T00:53:01.183Z,989.92
2023-07-26T00:58:01.013Z,989.99
2023-07-26T01:03:01.009Z,990.02
2023-07-26T01:08:00.882Z,990.04
2023-07-26T01:13:00.835Z,990.09
2023-07-26T01:18:00.768Z,990.24
2023-07-26T01:23:00.697Z,990.21
2023-07-26T01:28:00.599Z,990.27
2023-07-26T01:33:00.660Z,990.30
2023-07-26T01:38:00.498Z,990.38
2023-07-26T01:43:03.431Z,990.43
2023-07-26T01:48:00.384Z,990.44
2023-07-26T01:53:00.330Z,990.44
2023-07-26T01:58:00.320Z,990.49
2023-07-26T02:03:00.421Z,990.53
2023-07-26T02:08:00.083Z,990.61
2023-07-26T02:13:00.075Z,990.67
2023-07-26T02:18:00.003Z,990.71
2023-07-26T02:22:59.926Z,990.74
2023-07-26T02:27:59.811Z,990.77
2023-07-26T02:32:59.827Z,990.84
2023-07-26T02:37:59.734Z,990.83
2023-07-26T02:43:02.703Z,990.88
2023-07-26T02:47:59.644Z,990.95
2023-07-26T02:52:59.576Z,991.02
2023-07-26T02:57:59.443Z,991.06
2023-07-26T03:02:59.477Z,991.15
2023-07-26T03:07:59.340Z,991.19
2023-07-26T03:12:59.330Z,991.23
2023-07-26T03:17:59.234Z,991.33
2023-07-26T03:22:59.176Z,991.33
2023-07-26T03:27:59.061Z,991.38
2023-07-26T03:32:59.031Z,991.48
2023-07-26T03:37:58.938Z,991.48
2023-07-26T03:43:01.873Z,991.54
2023-07-26T03:47:58.849Z,991.58
2023-07-26T03:52:58.967Z,991.53
2023-07-26T03:57:58.679Z,991.53
2023-07-26T04:02:58.813Z,991.63
2023-07-26T04:07:58.542Z,991.76
2023-07-26T04:12:58.671Z,991.81
2023-07-26T04:17:58.457Z,991.78
2023-07-26T04:22:58.351Z,991.82
2023-07-26T04:27:58.261Z,991.85
2023-07-26T04:32:58.279Z,991.86
2023-07-26T04:37:58.183Z,991.89
2023-07-26T04:43:01.408Z,991.92
2023-07-26T04:47:58.009Z,991.91
2023-07-26T04:52:57.954Z,991.93
2023-07-26T04:57:57.858Z,991.95
2023-07-26T05:02:57.959Z,992.04
2023-07-26T05:07:57.748Z,991.98
2023-07-26T05:12:57.703Z,991.90
2023-07-26T05:17:57.678Z,991.91
2023-07-26T05:22:57.673Z,991.96
2023-07-26T05:27:57.451Z,991.96
2023-07-26T05:32:57.564Z,991.95
2023-07-26T05:37:57.314Z,991.99
2023-07-26T05:43:00.819Z,991.93
2023-07-26T05:47:57.263Z,992.00
2023-07-26T05:52:57.521Z,992.00
2023-07-26T05:57:57.070Z,991.99
2023-07-26T06:02:57.098Z,992.06
2023-07-26T06:07:56.956Z,992.12
2023-07-26T06:12:56.935Z,992.09
2023-07-26T06:17:56.838Z,992.03
2023-07-26T06:22:56.744Z,992.03
2023-07-26T06:27:56.723Z,992.16
2023-07-26T06:32:56.712Z,992.09
2023-07-26T06:37:56.588Z,992.07
2023-07-26T06:42:59.869Z,992.05
2023-07-26T06:47:56.504Z,991.91
2023-07-26T06:52:56.546Z,992.04
2023-07-26T06:57:56.311Z,991.99
2023-07-26T07:02:56.281Z,991.94
2023-07-26T07:07:56.150Z,991.92
2023-07-26T07:12:56.205Z,991.97
2023-07-26T07:18:13.133Z,991.99
2023-07-26T07:22:57.368Z,992.10
2023-07-26T07:27:55.922Z,992.12
2023-07-26T07:32:55.986Z,992.21
2023-07-26T07:37:55.861Z,992.15
2023-07-26T07:42:58.885Z,992.30
2023-07-26T07:47:55.840Z,992.30
2023-07-26T07:52:55.737Z,992.17
2023-07-26T07:57:55.648Z,992.24
2023-07-26T08:02:55.665Z,992.27
2023-07-26T08:07:55.478Z,992.23
2023-07-26T08:12:55.608Z,992.28
2023-07-26T08:17:55.337Z,992.35
2023-07-26T08:22:56.830Z,992.19
2023-07-26T08:27:56.579Z,992.30
2023-07-26T08:32:55.129Z,992.21
2023-07-26T08:37:55.074Z,991.98
2023-07-26T08:42:57.970Z,991.97
2023-07-26T08:47:54.997Z,991.98
2023-07-26T08:52:55.086Z,992.00
2023-07-26T08:57:54.720Z,992.10
2023-07-26T09:02:55.040Z,992.11
2023-07-26T09:07:54.590Z,992.09
2023-07-26T09:12:54.612Z,992.10
2023-07-26T09:17:54.621Z,992.06
2023-07-26T09:22:54.478Z,992.02
2023-07-26T09:27:54.392Z,992.08
2023-07-26T09:32:54.542Z,992.10
2023-07-26T09:37:55.364Z,992.15
2023-07-26T09:42:57.332Z,992.06
2023-07-26T09:48:02.131Z,992.06
2023-07-26T09:52:55.124Z,992.15
2023-07-26T09:57:53.959Z,992.21
2023-07-26T10:02:54.033Z,992.19
2023-07-26T10:07:53.855Z,992.14
2023-07-26T10:12:53.742Z,992.02
2023-07-26T10:17:53.723Z,992.31
2023-07-26T10:22:53.635Z,992.64
2023-07-26T10:27:53.535Z,992.71
2023-07-26T10:32:53.574Z,992.63
2023-07-26T10:37:53.416Z,992.51
2023-07-26T10:42:56.657Z,992.69
2023-07-26T10:47:53.408Z,992.86
2023-07-26T10:52:53.336Z,992.75
2023-07-26T10:57:53.257Z,992.63
2023-07-26T11:02:53.296Z,992.60
2023-07-26T11:07:53.054Z,992.65
2023-07-26T11:12:53.031Z,992.51
2023-07-26T11:17:52.950Z,992.32
2023-07-26T11:22:52.909Z,992.23
2023-07-26T11:27:52.764Z,992.29
2023-07-26T11:32:52.796Z,992.17
2023-07-26T11:37:52.644Z,992.13
2023-07-26T11:42:55.627Z,992.03
2023-07-26T11:47:52.521Z,991.99
2023-07-26T11:52:52.523Z,991.96
2023-07-26T11:57:52.477Z,991.96
2023-07-26T12:02:52.464Z,991.99
2023-07-26T12:07:52.337Z,992.02
2023-07-26T12:12:52.427Z,992.06
2023-07-26T12:17:52.254Z,992.08
2023-07-26T12:22:52.290Z,992.00
2023-07-26T12:27:52.049Z,992.00
2023-07-26T12:32:52.050Z,992.06
2023-07-26T12:37:51.871Z,991.93
2023-07-26T12:42:54.845Z,991.92
2023-07-26T12:47:51.872Z,991.90
2023-07-26T12:52:51.790Z,991.98
2023-07-26T12:57:51.672Z,991.99
2023-07-26T13:02:51.714Z,991.91
2023-07-26T13:07:51.544Z,991.99
2023-07-26T13:12:51.540Z,991.94
2023-07-26T13:17:51.479Z,991.88
2023-07-26T13:22:51.289Z,991.84
2023-07-26T13:27:51.206Z,991.86
2023-07-26T13:32:51.332Z,991.88
2023-07-26T13:37:51.020Z,991.86
2023-07-26T13:42:54.006Z,991.89
2023-07-26T13:47:50.930Z,991.93
2023-07-26T13:52:50.888Z,991.81
2023-07-26T13:57:50.814Z,991.85
2023-07-26T14:02:50.836Z,991.89
2023-07-26T14:07:50.675Z,991.83
2023-07-26T14:12:50.733Z,991.83
2023-07-26T14:17:50.597Z,991.80
2023-07-26T14:22:50.558Z,991.79
2023-07-26T14:27:50.427Z,991.73
2023-07-26T14:32:50.495Z,991.84
2023-07-26T14:37:50.360Z,991.79
2023-07-26T14:42:53.272Z,991.79
2023-07-26T14:47:50.215Z,991.82
2023-07-26T14:52:50.163Z,991.81
2023-07-26T14:57:49.993Z,991.82
2023-07-26T15:02:50.027Z,991.82
2023-07-26T15:07:49.854Z,991.90
2023-07-26T15:12:49.934Z,991.83
2023-07-26T15:17:49.805Z,991.89
2023-07-26T15:22:49.837Z,991.92
2023-07-26T15:27:49.664Z,992.01
2023-07-26T15:32:49.685Z,992.04
2023-07-26T15:37:49.525Z,992.02
2023-07-26T15:43:00.612Z,992.13
2023-07-26T15:47:50.453Z,992.07
2023-07-26T15:52:49.350Z,992.05
2023-07-26T15:57:49.317Z,992.17
2023-07-26T16:12:49.076Z,992.06
2023-07-26T16:22:48.965Z,991.99
2023-07-26T16:27:48.848Z,992.05
2023-07-26T16:32:48.874Z,992.00
2023-07-26T16:37:48.699Z,992.07
2023-07-26T16:42:51.744Z,992.07
2023-07-26T16:47:48.735Z,992.25
2023-07-26T16:52:48.611Z,992.21
2023-07-26T16:57:48.426Z,992.26
2023-07-26T17:02:48.555Z,992.24
2023-07-26T17:07:48.320Z,992.23
2023-07-26T17:12:48.298Z,992.20
2023-07-26T17:17:48.229Z,992.39
2023-07-26T17:22:48.284Z,992.46
2023-07-26T17:27:48.010Z,992.52
2023-07-26T17:32:48.078Z,992.51
2023-07-26T17:37:47.887Z,992.47
2023-07-26T17:42:51.003Z,992.52
2023-07-26T17:47:47.917Z,992.60
2023-07-26T17:52:47.962Z,992.60
2023-07-26T17:57:58.985Z,992.69
2023-07-26T18:02:48.769Z,992.66
2023-07-26T18:07:47.677Z,992.66
2023-07-26T18:12:47.568Z,992.74
2023-07-26T18:17:47.500Z,992.82
2023-07-26T18:22:47.476Z,992.91
2023-07-26T18:27:47.236Z,992.94
2023-07-26T18:32:47.284Z,992.98
2023-07-26T18:37:47.111Z,992.94
2023-07-26T18:42:50.089Z,993.04
2023-07-26T18:47:47.024Z,993.10
2023-07-26T18:52:47.014Z,993.13
2023-07-26T18:57:48.293Z,993.16
2023-07-26T19:02:47.087Z,993.23
2023-07-26T19:07:46.717Z,993.29
2023-07-26T19:12:46.699Z,993.36
2023-07-26T19:17:46.655Z,993.44
2023-07-26T19:22:46.598Z,993.54
2023-07-26T19:27:46.471Z,993.60
2023-07-26T19:32:46.488Z,993.69
2023-07-26T19:37:46.352Z,993.75
2023-07-26T19:42:49.319Z,993.78
2023-07-26T19:47:46.232Z,993.81
2023-07-26T19:52:46.745Z,993.85
2023-07-26T19:57:46.132Z,993.91
2023-07-26T20:02:46.426Z,993.94
2023-07-26T20:07:46.109Z,994.05
2023-07-26T20:12:46.115Z,994.13
2023-07-26T20:17:45.953Z,994.19
2023-07-26T20:22:46.013Z,994.24
2023-07-26T20:27:45.703Z,994.20
2023-07-26T20:32:45.723Z,994.28
2023-07-26T20:37:45.584Z,994.36
2023-07-26T20:42:48.573Z,994.41
2023-07-26T20:47:45.510Z,994.39
2023-07-26T20:52:45.430Z,994.47
2023-07-26T20:57:45.330Z,994.47
2023-07-26T21:02:45.379Z,994.47
2023-07-26T21:07:45.187Z,994.52
2023-07-26T21:12:45.178Z,994.44
2023-07-26T21:17:45.071Z,994.40
2023-07-26T21:22:45.231Z,994.44
2023-07-26T21:27:44.923Z,994.45
2023-07-26T21:32:44.972Z,994.49
2023-07-26T21:37:44.817Z,994.47
2023-07-26T21:42:47.752Z,994.51
2023-07-26T21:47:44.656Z,994.54
2023-07-26T21:52:44.675Z,994.58
2023-07-26T21:57:44.554Z,994.47
2023-07-26T22:02:44.652Z,994.46
2023-07-26T22:07:44.377Z,994.49
2023-07-26T22:12:44.456Z,994.49
2023-07-26T22:17:45.123Z,994.46
2023-07-26T22:22:44.334Z,994.39
2023-07-26T22:27:44.174Z,994.37
2023-07-26T22:32:44.160Z,994.49
2023-07-26T22:37:44.041Z,994.32
2023-07-26T22:42:47.024Z,994.33
2023-07-26T22:47:43.856Z,994.31
2023-07-26T22:52:43.830Z,994.34
2023-07-26T22:57:43.720Z,994.33
2023-07-26T23:02:43.783Z,994.43
2023-07-26T23:07:43.584Z,994.34
2023-07-26T23:12:43.607Z,994.32
2023-07-26T23:17:43.595Z,994.34
2023-07-26T23:22:43.612Z,994.31
2023-07-26T23:27:43.317Z,994.34
2023-07-26T23:32:43.347Z,994.28
2023-07-26T23:37:43.268Z,994.32
2023-07-26T23:42:46.281Z,994.33
2023-07-26T23:47:43.109Z,994.28
2023-07-26T23:52:43.146Z,994.22
2023-07-26T23:57:42.928Z,994.19
